createdAt,value
2023-05-01T00:05:27.335Z,3.88
2023-05-01T00:08:57.100Z,3.72
2023-05-01T00:11:47.381Z,3.60
2023-05-01T00:18:22.961Z,4.00
2023-05-01T00:28:47.174Z,3.88
2023-05-01T00:32:20.309Z,3.53
2023-05-01T00:34:59.012Z,3.17
2023-05-01T00:37:53.295Z,3.63
2023-05-01T00:44:55.041Z,3.33
2023-05-01T00:48:02.895Z,3.60
2023-05-01T00:50:53.486Z,3.25
2023-05-01T00:54:09.047Z,3.03
2023-05-01T00:57:05.424Z,3.25
2023-05-01T01:12:12.270Z,3.50
2023-05-01T01:15:38.993Z,3.72
2023-05-01T01:18:32.697Z,3.83
2023-05-01T01:24:13.948Z,3.17
2023-05-01T01:27:19.908Z,4.22
2023-05-01T01:38:09.405Z,4.20
2023-05-01T01:41:48.491Z,3.92
2023-05-01T01:49:07.325Z,3.78
2023-05-01T01:53:24.090Z,3.40
2023-05-01T01:56:41.895Z,3.90
2023-05-01T01:59:25.942Z,4.22
2023-05-01T02:02:07.002Z,4.40
2023-05-01T02:05:11.244Z,4.35
2023-05-01T02:07:56.904Z,4.25
2023-05-01T02:10:45.805Z,4.03
2023-05-01T02:13:22.139Z,4.60
2023-05-01T02:24:10.150Z,4.13
2023-05-01T02:27:27.251Z,4.35
2023-05-01T02:30:38.127Z,5.00
2023-05-01T02:33:36.343Z,4.72
2023-05-01T02:36:45.739Z,4.03
2023-05-01T02:39:30.206Z,4.68
2023-05-01T02:42:44.153Z,4.82
2023-05-01T02:45:30.307Z,4.03
2023-05-01T02:48:54.073Z,4.50
2023-05-01T02:51:41.604Z,5.07
2023-05-01T02:55:20.647Z,4.72
2023-05-01T02:58:00.641Z,5.50
2023-05-01T03:03:22.450Z,5.13
2023-05-01T03:13:40.602Z,4.43
2023-05-01T03:16:12.242Z,4.80
2023-05-01T03:19:35.398Z,3.88
2023-05-01T03:26:02.147Z,4.80
2023-05-01T03:28:54.063Z,4.47
2023-05-01T03:32:04.314Z,4.57
2023-05-01T03:41:17.518Z,4.88
2023-05-01T03:44:26.330Z,4.88
2023-05-01T03:47:15.256Z,5.00
2023-05-01T03:53:39.549Z,4.63
2023-05-01T03:56:31.836Z,4.90
2023-05-01T03:59:26.856Z,5.78
2023-05-01T04:02:01.990Z,4.75
2023-05-01T04:05:01.869Z,5.80
2023-05-01T04:08:02.411Z,4.20
2023-05-01T04:10:48.244Z,4.95
2023-05-01T04:13:43.535Z,5.18
2023-05-01T04:20:03.441Z,6.07
2023-05-01T04:22:43.836Z,4.97
2023-05-01T04:25:43.988Z,5.18
2023-05-01T04:28:33.710Z,4.85
2023-05-01T04:31:10.172Z,5.28
2023-05-01T04:33:41.408Z,5.35
2023-05-01T04:36:41.525Z,4.90
2023-05-01T04:40:00.531Z,4.60
2023-05-01T04:42:46.732Z,5.78
2023-05-01T04:45:31.280Z,4.88
2023-05-01T04:48:13.729Z,4.97
2023-05-01T04:51:13.848Z,4.72
2023-05-01T04:53:45.889Z,4.80
2023-05-01T05:03:32.894Z,5.18
2023-05-01T05:06:13.560Z,5.00
2023-05-01T05:09:28.349Z,5.30
2023-05-01T05:12:23.174Z,5.00
2023-05-01T05:15:16.171Z,4.95
2023-05-01T05:17:59.277Z,5.20
2023-05-01T05:21:18.764Z,5.03
2023-05-01T05:24:39.291Z,5.15
2023-05-01T05:27:41.670Z,5.40
2023-05-01T05:30:26.796Z,6.03
2023-05-01T05:33:06.776Z,5.20
2023-05-01T05:36:24.358Z,5.18
2023-05-01T05:41:33.531Z,5.72
2023-05-01T05:43:28.424Z,5.47
2023-05-01T05:47:15.969Z,5.07
2023-05-01T05:50:39.091Z,4.80
2023-05-01T06:01:58.323Z,5.50
2023-05-01T06:05:42.981Z,5.18
2023-05-01T06:12:11.255Z,5.40
2023-05-01T06:15:11.003Z,5.30
2023-05-01T06:18:06.474Z,4.90
2023-05-01T06:21:10.815Z,5.15
2023-05-01T06:23:56.901Z,5.90
2023-05-01T06:31:12.755Z,5.18
2023-05-01T06:40:34.135Z,5.72
2023-05-01T06:43:42.031Z,5.95
2023-05-01T06:53:48.079Z,6.53
2023-05-01T06:57:04.224Z,6.18
2023-05-01T07:00:07.399Z,7.35
2023-05-01T07:02:38.313Z,5.95
2023-05-01T07:05:14.247Z,6.63
2023-05-01T07:08:01.268Z,6.40
2023-05-01T07:10:39.907Z,6.03
2023-05-01T07:13:14.293Z,6.72
2023-05-01T07:15:54.696Z,6.82
2023-05-01T07:18:37.265Z,7.05
2023-05-01T07:21:21.263Z,6.78
2023-05-01T07:23:56.565Z,6.43
2023-05-01T07:26:46.426Z,6.40
2023-05-01T07:29:40.908Z,8.75
2023-05-01T07:32:46.466Z,6.43
2023-05-01T07:35:24.112Z,6.22
2023-05-01T07:38:00.133Z,6.10
2023-05-01T07:40:45.508Z,6.68
2023-05-01T07:43:26.939Z,6.57
2023-05-01T07:46:06.640Z,6.70
2023-05-01T07:48:39.092Z,6.13
2023-05-01T07:51:33.124Z,6.35
2023-05-01T07:54:11.117Z,6.22
2023-05-01T07:56:53.302Z,6.30
2023-05-01T07:59:36.689Z,6.80
2023-05-01T08:02:34.998Z,6.60
2023-05-01T08:05:25.872Z,7.22
2023-05-01T08:08:15.251Z,6.47
2023-05-01T08:11:03.826Z,5.93
2023-05-01T08:13:39.773Z,6.70
2023-05-01T08:16:16.490Z,6.47
2023-05-01T08:18:52.463Z,6.25
2023-05-01T08:21:19.321Z,7.13
2023-05-01T08:23:46.278Z,6.90
2023-05-01T08:26:16.351Z,6.40
2023-05-01T08:28:43.331Z,6.60
2023-05-01T08:31:12.523Z,6.60
2023-05-01T08:33:44.925Z,6.53
2023-05-01T08:36:14.586Z,6.57
2023-05-01T08:38:41.556Z,6.70
2023-05-01T08:41:09.146Z,6.75
2023-05-01T08:43:41.413Z,6.03
2023-05-01T08:46:10.159Z,6.57
2023-05-01T08:48:42.158Z,6.75
2023-05-01T08:51:10.421Z,6.18
2023-05-01T08:53:40.429Z,6.80
2023-05-01T08:56:13.608Z,6.10
2023-05-01T08:58:43.739Z,5.57
2023-05-01T09:01:16.164Z,7.13
2023-05-01T09:03:45.560Z,7.75
2023-05-01T09:06:13.427Z,6.60
2023-05-01T09:08:40.719Z,8.18
2023-05-01T09:11:07.968Z,6.80
2023-05-01T09:13:37.238Z,7.75
2023-05-01T09:16:09.777Z,7.25
2023-05-01T09:18:57.478Z,6.65
2023-05-01T09:21:32.092Z,6.68
2023-05-01T09:23:58.963Z,6.68
2023-05-01T09:26:29.540Z,6.85
2023-05-01T09:28:58.376Z,6.53
2023-05-01T09:31:35.056Z,7.30
2023-05-01T09:34:11.697Z,6.90
2023-05-01T09:36:47.113Z,7.00
2023-05-01T09:39:22.909Z,6.43
2023-05-01T09:41:57.852Z,6.72
2023-05-01T09:44:35.787Z,7.20
2023-05-01T09:47:03.588Z,7.20
2023-05-01T09:49:47.993Z,7.10
2023-05-01T09:52:15.240Z,6.78
2023-05-01T09:54:42.502Z,7.28
2023-05-01T09:57:10.024Z,7.53
2023-05-01T09:59:36.927Z,6.90
2023-05-01T10:02:03.893Z,7.15
2023-05-01T10:04:32.392Z,7.10
2023-05-01T10:07:14.852Z,6.72
2023-05-01T10:09:42.307Z,7.72
2023-05-01T10:12:09.229Z,7.13
2023-05-01T10:14:56.582Z,7.18
2023-05-01T10:17:23.752Z,9.10
2023-05-01T10:19:53.753Z,6.95
2023-05-01T10:22:20.667Z,7.00
2023-05-01T10:24:47.844Z,7.35
2023-05-01T10:27:17.610Z,7.18
2023-05-01T10:29:47.218Z,7.25
2023-05-01T10:32:14.384Z,7.40
2023-05-01T10:34:48.943Z,7.53
2023-05-01T10:37:23.281Z,6.93
2023-05-01T10:39:49.984Z,7.35
2023-05-01T10:42:17.912Z,7.38
2023-05-01T10:44:46.231Z,7.43
2023-05-01T10:47:25.397Z,7.03
2023-05-01T10:50:21.764Z,7.68
2023-05-01T10:53:10.882Z,7.20
2023-05-01T10:55:43.425Z,6.43
2023-05-01T10:58:12.260Z,7.20
2023-05-01T11:00:39.074Z,8.18
2023-05-01T11:03:21.086Z,7.18
2023-05-01T11:06:08.468Z,7.28
2023-05-01T11:08:37.700Z,7.55
2023-05-01T11:11:19.822Z,7.88
2023-05-01T11:13:59.311Z,6.30
2023-05-01T11:16:38.904Z,6.95
2023-05-01T11:19:09.790Z,6.63
2023-05-01T11:21:38.928Z,6.90
2023-05-01T11:24:12.265Z,7.28
2023-05-01T11:26:40.815Z,7.68
2023-05-01T11:29:11.440Z,6.70
2023-05-01T11:31:41.899Z,7.30
2023-05-01T11:34:09.213Z,7.88
2023-05-01T11:36:57.722Z,8.18
2023-05-01T11:39:24.722Z,8.48
2023-05-01T11:42:06.762Z,8.93
2023-05-01T11:44:35.836Z,8.00
2023-05-01T11:47:02.729Z,7.35
2023-05-01T11:49:29.730Z,7.03
2023-05-01T11:51:59.605Z,7.55
2023-05-01T11:54:26.908Z,7.80
2023-05-01T11:57:00.837Z,8.20
2023-05-01T11:59:30.668Z,6.35
2023-05-01T12:01:58.311Z,7.78
2023-05-01T12:04:32.450Z,8.27
2023-05-01T12:06:59.710Z,7.80
2023-05-01T12:09:29.834Z,7.55
2023-05-01T12:12:01.159Z,7.65
2023-05-01T12:14:28.334Z,7.50
2023-05-01T12:16:55.699Z,8.20
2023-05-01T12:19:23.977Z,8.38
2023-05-01T12:22:05.884Z,7.18
2023-05-01T12:24:32.653Z,6.95
2023-05-01T12:27:03.596Z,7.28
2023-05-01T12:29:44.907Z,7.32
2023-05-01T12:32:12.838Z,7.90
2023-05-01T12:34:40.405Z,7.45
2023-05-01T12:37:08.951Z,7.10
2023-05-01T12:39:40.279Z,8.10
2023-05-01T12:42:13.302Z,7.30
2023-05-01T12:47:08.024Z,7.25
2023-05-01T12:49:37.049Z,8.13
2023-05-01T12:52:09.437Z,7.65
2023-05-01T12:54:38.111Z,7.25
2023-05-01T12:57:14.858Z,7.38
2023-05-01T12:59:43.528Z,7.68
2023-05-01T13:02:12.549Z,7.82
2023-05-01T13:04:39.708Z,7.00
2023-05-01T13:07:15.089Z,7.13
2023-05-01T13:09:55.961Z,6.80
2023-05-01T13:12:24.339Z,6.82
2023-05-01T13:14:51.382Z,6.85
2023-05-01T13:17:32.947Z,6.43
2023-05-01T13:20:02.179Z,6.18
2023-05-01T13:22:34.121Z,8.57
2023-05-01T13:25:03.816Z,6.32
2023-05-01T13:27:32.225Z,6.80
2023-05-01T13:29:59.896Z,6.25
2023-05-01T13:32:27.402Z,5.75
2023-05-01T13:34:54.433Z,5.78
2023-05-01T13:37:21.436Z,5.68
2023-05-01T13:39:48.283Z,5.20
2023-05-01T13:42:25.182Z,6.30
2023-05-01T13:44:54.252Z,5.32
2023-05-01T13:47:25.844Z,5.65
2023-05-01T13:49:52.759Z,5.18
2023-05-01T13:52:20.384Z,5.30
2023-05-01T13:54:48.547Z,6.82
2023-05-01T13:57:17.493Z,6.00
2023-05-01T13:59:45.568Z,6.13
2023-05-01T14:02:26.979Z,6.60
2023-05-01T14:04:58.337Z,5.90
2023-05-01T14:07:28.980Z,5.88
2023-05-01T14:10:06.256Z,5.90
2023-05-01T14:12:33.493Z,5.90
2023-05-01T14:15:04.335Z,5.00
2023-05-01T14:17:34.711Z,5.53
2023-05-01T14:20:04.770Z,6.45
2023-05-01T14:22:45.554Z,5.75
2023-05-01T14:25:22.367Z,5.30
2023-05-01T14:27:49.572Z,5.15
2023-05-01T14:30:27.380Z,5.75
2023-05-01T14:32:54.756Z,5.40
2023-05-01T14:35:23.122Z,5.70
2023-05-01T14:37:50.373Z,5.45
2023-05-01T14:40:18.824Z,5.97
2023-05-01T14:42:49.259Z,4.40
2023-05-01T14:45:19.327Z,5.13
2023-05-01T14:47:48.072Z,4.70
2023-05-01T14:50:24.981Z,5.45
2023-05-01T14:53:01.216Z,5.20
2023-05-01T14:55:31.148Z,5.68
2023-05-01T14:57:58.067Z,6.22
2023-05-01T15:00:26.713Z,5.68
2023-05-01T15:02:56.285Z,5.32
2023-05-01T15:05:26.725Z,5.47
2023-05-01T15:08:02.410Z,5.25
2023-05-01T15:10:29.422Z,6.50
2023-05-01T15:13:01.335Z,5.32
2023-05-01T15:18:03.898Z,5.32
2023-05-01T15:20:31.418Z,5.07
2023-05-01T15:22:58.274Z,5.63
2023-05-01T15:25:25.264Z,5.70
2023-05-01T15:27:52.259Z,5.25
2023-05-01T15:30:19.309Z,5.88
2023-05-01T15:32:46.371Z,5.82
2023-05-01T15:35:13.437Z,4.90
2023-05-01T15:37:40.717Z,5.13
2023-05-01T15:40:08.270Z,5.40
2023-05-01T15:42:35.132Z,5.82
2023-05-01T15:45:03.459Z,6.22
2023-05-01T15:47:31.193Z,6.00
2023-05-01T15:50:00.759Z,6.50
2023-05-01T15:52:36.003Z,5.38
2023-05-01T15:55:11.094Z,5.63
2023-05-01T15:58:02.265Z,5.63
2023-05-01T16:00:35.374Z,6.05
2023-05-01T16:05:35.720Z,6.30
2023-05-01T16:08:13.063Z,8.38
2023-05-01T16:10:43.666Z,8.40
2023-05-01T16:13:26.651Z,6.70
2023-05-01T16:15:56.786Z,6.63
2023-05-01T16:18:30.853Z,7.43
2023-05-01T16:20:59.991Z,7.05
2023-05-01T16:23:27.445Z,6.40
2023-05-01T16:25:59.426Z,7.00
2023-05-01T16:28:30.507Z,6.30
2023-05-01T16:30:58.241Z,6.32
2023-05-01T16:33:25.513Z,6.28
2023-05-01T16:35:58.857Z,5.95
2023-05-01T16:38:27.462Z,5.35
2023-05-01T16:40:57.300Z,4.97
2023-05-01T16:43:24.319Z,5.13
2023-05-01T16:45:54.013Z,6.05
2023-05-01T16:48:23.685Z,5.38
2023-05-01T16:50:51.008Z,5.85
2023-05-01T16:53:18.205Z,6.40
2023-05-01T16:55:44.990Z,5.47
2023-05-01T16:58:11.915Z,5.70
2023-05-01T17:00:38.883Z,5.78
2023-05-01T17:03:05.828Z,6.13
2023-05-01T17:05:32.651Z,6.15
2023-05-01T17:08:02.216Z,6.20
2023-05-01T17:10:29.044Z,6.82
2023-05-01T17:12:56.041Z,6.53
2023-05-01T17:15:26.132Z,6.22
2023-05-01T17:17:53.045Z,5.82
2023-05-01T17:20:20.098Z,7.25
2023-05-01T17:22:46.887Z,8.55
2023-05-01T17:25:13.845Z,11.60
2023-05-01T17:27:40.826Z,9.30
2023-05-01T17:30:07.903Z,7.60
2023-05-01T17:32:37.427Z,6.60
2023-05-01T17:35:06.663Z,6.90
2023-05-01T17:37:33.466Z,6.05
2023-05-01T17:40:00.737Z,6.15
2023-05-01T17:42:28.020Z,6.05
2023-05-01T17:44:54.912Z,5.82
2023-05-01T17:47:26.190Z,6.28
2023-05-01T17:49:53.197Z,5.65
2023-05-01T17:52:19.955Z,6.47
2023-05-01T17:54:46.868Z,5.90
2023-05-01T17:57:13.716Z,5.75
2023-05-01T17:59:40.470Z,5.93
2023-05-01T18:02:08.378Z,6.22
2023-05-01T18:04:36.200Z,6.13
2023-05-01T18:07:04.242Z,5.57
2023-05-01T18:09:31.399Z,5.88
2023-05-01T18:11:58.339Z,6.07
2023-05-01T18:14:25.133Z,6.22
2023-05-01T18:16:52.865Z,5.45
2023-05-01T18:19:22.139Z,6.20
2023-05-01T18:21:49.083Z,6.22
2023-05-01T18:24:15.871Z,5.80
2023-05-01T18:26:42.655Z,6.10
2023-05-01T18:29:09.471Z,6.57
2023-05-01T18:31:38.329Z,6.80
2023-05-01T18:34:07.151Z,7.10
2023-05-01T18:36:33.989Z,6.28
2023-05-01T18:39:01.861Z,6.45
2023-05-01T18:41:28.641Z,5.85
2023-05-01T18:43:57.892Z,7.20
2023-05-01T18:46:24.974Z,6.05
2023-05-01T18:48:54.242Z,6.10
2023-05-01T18:51:21.196Z,6.43
2023-05-01T18:53:48.248Z,6.38
2023-05-01T18:56:15.152Z,6.00
2023-05-01T18:58:42.026Z,6.82
2023-05-01T19:01:09.372Z,6.53
2023-05-01T19:03:36.285Z,6.20
2023-05-01T19:06:03.139Z,6.22
2023-05-01T19:08:31.741Z,6.18
2023-05-01T19:11:04.033Z,6.10
2023-05-01T19:13:36.496Z,6.40
2023-05-01T19:16:06.477Z,6.20
2023-05-01T19:18:37.563Z,7.53
2023-05-01T19:21:13.845Z,6.93
2023-05-01T19:23:49.008Z,7.80
2023-05-01T19:26:22.669Z,7.03
2023-05-01T19:28:50.045Z,7.05
2023-05-01T19:31:22.227Z,7.15
2023-05-01T19:34:02.386Z,7.65
2023-05-01T19:36:36.648Z,7.55
2023-05-01T19:39:07.053Z,7.60
2023-05-01T19:41:47.290Z,7.75
2023-05-01T19:44:14.497Z,6.60
2023-05-01T19:46:57.102Z,6.35
2023-05-01T19:49:30.818Z,7.40
2023-05-01T19:52:06.573Z,7.25
2023-05-01T19:54:49.169Z,7.38
2023-05-01T19:57:19.010Z,6.53
2023-05-01T19:59:59.168Z,7.68
2023-05-01T20:02:32.732Z,6.80
2023-05-01T20:05:08.648Z,7.00
2023-05-01T20:07:37.958Z,7.20
2023-05-01T20:10:10.490Z,7.68
2023-05-01T20:12:38.410Z,9.25
2023-05-01T20:15:13.279Z,7.50
2023-05-01T20:17:45.365Z,7.25
2023-05-01T20:20:17.265Z,7.35
2023-05-01T20:22:48.639Z,7.43
2023-05-01T20:25:25.872Z,7.35
2023-05-01T20:27:59.872Z,8.00
2023-05-01T20:30:26.739Z,7.15
2023-05-01T20:32:53.718Z,7.82
2023-05-01T20:35:20.888Z,7.65
2023-05-01T20:37:52.540Z,7.25
2023-05-01T20:40:24.480Z,8.10
2023-05-01T20:42:51.997Z,7.60
2023-05-01T20:45:18.991Z,7.57
2023-05-01T20:47:46.728Z,7.53
2023-05-01T20:50:13.678Z,8.48
2023-05-01T20:52:41.196Z,7.05
2023-05-01T20:55:11.582Z,7.47
2023-05-01T20:57:38.988Z,8.10
2023-05-01T21:00:07.676Z,7.10
2023-05-01T21:02:38.017Z,6.70
2023-05-01T21:05:05.884Z,7.05
2023-05-01T21:07:41.596Z,6.47
2023-05-01T21:10:10.749Z,6.78
2023-05-01T21:12:37.685Z,6.43
2023-05-01T21:15:04.830Z,6.78
2023-05-01T21:17:36.227Z,6.65
2023-05-01T21:20:05.669Z,6.57
2023-05-01T21:22:32.526Z,7.55
2023-05-01T21:25:00.094Z,7.38
2023-05-01T21:27:27.509Z,7.00
2023-05-01T21:29:57.643Z,6.93
2023-05-01T21:32:34.798Z,6.93
2023-05-01T21:35:02.131Z,6.63
2023-05-01T21:37:29.532Z,7.35
2023-05-01T21:40:00.586Z,7.00
2023-05-01T21:42:37.905Z,7.93
2023-05-01T21:45:06.886Z,7.47
2023-05-01T21:47:44.290Z,7.15
2023-05-01T21:50:13.451Z,7.53
2023-05-01T21:52:40.996Z,7.38
2023-05-01T21:55:11.234Z,6.90
2023-05-01T21:57:39.634Z,6.72
2023-05-01T22:00:09.889Z,7.63
2023-05-01T22:02:46.622Z,7.45
2023-05-01T22:05:14.848Z,7.03
2023-05-01T22:07:42.335Z,7.55
2023-05-01T22:10:11.520Z,7.53
2023-05-01T22:12:39.844Z,8.32
2023-05-01T22:15:08.120Z,7.78
2023-05-01T22:17:35.070Z,8.15
2023-05-01T22:20:02.085Z,7.65
2023-05-01T22:22:28.982Z,7.63
2023-05-01T22:24:56.047Z,7.95
2023-05-01T22:27:22.953Z,8.55
2023-05-01T22:29:49.778Z,8.45
2023-05-01T22:32:16.766Z,8.85
2023-05-01T22:34:43.610Z,8.73
2023-05-01T22:37:10.696Z,8.45
2023-05-01T22:39:37.452Z,8.15
2023-05-01T22:42:04.960Z,8.65
2023-05-01T22:44:31.969Z,8.48
2023-05-01T22:47:01.680Z,9.07
2023-05-01T22:49:28.705Z,9.02
2023-05-01T22:51:55.988Z,9.73
2023-05-01T22:54:23.060Z,8.73
2023-05-01T22:56:50.424Z,9.55
2023-05-01T22:59:17.662Z,9.02
2023-05-01T23:01:45.116Z,9.38
2023-05-01T23:04:12.804Z,9.73
2023-05-01T23:06:40.239Z,8.40
2023-05-01T23:09:07.401Z,9.52
2023-05-01T23:11:34.292Z,9.50
2023-05-01T23:14:01.381Z,8.95
2023-05-01T23:16:31.849Z,9.43
2023-05-01T23:18:58.640Z,9.68
2023-05-01T23:21:25.480Z,8.43
2023-05-01T23:23:52.597Z,9.70
2023-05-01T23:26:26.556Z,9.00
2023-05-01T23:28:53.549Z,9.02
2023-05-01T23:31:26.053Z,8.88
2023-05-01T23:33:53.631Z,8.43
2023-05-01T23:36:20.685Z,8.25
2023-05-01T23:38:48.214Z,9.75
2023-05-01T23:41:15.427Z,8.68
2023-05-01T23:43:42.462Z,8.18
2023-05-01T23:46:09.314Z,9.40
2023-05-01T23:48:36.312Z,9.00
2023-05-01T23:51:03.438Z,8.63
2023-05-01T23:53:30.698Z,9.50
2023-05-01T23:55:57.648Z,10.15
2023-05-01T23:58:24.476Z,9.55
